createdAt,value
2022-10-02T00:01:37.719Z,70.11
2022-10-02T00:03:23.811Z,69.21
2022-10-02T00:05:17.554Z,70.26
2022-10-02T00:06:54.660Z,69.93
2022-10-02T00:08:35.272Z,69.78
2022-10-02T00:10:27.289Z,70.12
2022-10-02T00:12:02.214Z,69.71
2022-10-02T00:13:42.443Z,69.12
2022-10-02T00:15:22.974Z,69.57
2022-10-02T00:17:00.967Z,68.99
2022-10-02T00:18:37.749Z,68.94
2022-10-02T00:20:17.369Z,69.23
2022-10-02T00:22:12.376Z,69.27
2022-10-02T00:24:09.296Z,68.67
2022-10-02T00:25:56.542Z,67.56
2022-10-02T00:27:50.100Z,67.53
2022-10-02T00:29:33.902Z,66.81
2022-10-02T00:31:36.754Z,67.44
2022-10-02T00:33:43.577Z,66.46
2022-10-02T00:35:38.955Z,66.18
2022-10-02T00:37:31.183Z,66.04
2022-10-02T00:39:30.626Z,65.81
2022-10-02T00:41:13.094Z,65.66
2022-10-02T00:42:59.020Z,65.71
2022-10-02T00:45:01.093Z,65.29
2022-10-02T00:47:04.730Z,65.31
2022-10-02T00:49:00.772Z,64.99
2022-10-02T00:50:43.989Z,64.74
2022-10-02T00:52:44.590Z,64.59
2022-10-02T00:54:39.525Z,64.76
2022-10-02T00:56:17.672Z,64.10
2022-10-02T00:58:13.898Z,64.45
2022-10-02T01:00:09.570Z,63.75
2022-10-02T01:02:08.825Z,63.04
2022-10-02T01:03:44.860Z,63.14
2022-10-02T01:05:19.610Z,63.12
2022-10-02T01:06:53.422Z,63.63
2022-10-02T01:08:27.251Z,63.47
2022-10-02T01:10:01.484Z,63.16
2022-10-02T01:11:37.349Z,62.46
2022-10-02T01:13:10.612Z,62.91
2022-10-02T01:14:44.051Z,62.55
2022-10-02T01:16:18.392Z,62.08
2022-10-02T01:17:53.135Z,61.59
2022-10-02T01:19:39.773Z,61.72
2022-10-02T01:21:18.637Z,61.57
2022-10-02T01:22:59.780Z,62.12
2022-10-02T01:24:44.164Z,61.60
2022-10-02T01:26:18.135Z,61.54
2022-10-02T01:27:54.138Z,61.23
2022-10-02T01:29:27.930Z,60.90
2022-10-02T01:31:10.714Z,60.97
2022-10-02T01:32:52.872Z,61.00
2022-10-02T01:34:27.704Z,61.19
2022-10-02T01:36:02.242Z,61.25
2022-10-02T01:37:39.161Z,60.72
2022-10-02T01:39:13.033Z,61.57
2022-10-02T01:40:46.267Z,60.30
2022-10-02T01:42:22.130Z,60.33
2022-10-02T01:44:03.136Z,60.27
2022-10-02T01:45:42.715Z,60.85
2022-10-02T01:47:53.411Z,60.86
2022-10-02T01:49:58.244Z,60.56
2022-10-02T01:51:34.390Z,61.48
2022-10-02T01:53:31.138Z,61.25
2022-10-02T01:55:41.802Z,60.88
2022-10-02T01:57:50.273Z,61.12
2022-10-02T01:59:27.016Z,61.48
2022-10-02T02:01:25.983Z,62.00
2022-10-02T02:03:20.874Z,62.27
2022-10-02T02:05:06.509Z,61.63
2022-10-02T02:07:16.843Z,62.03
2022-10-02T02:09:01.830Z,61.49
2022-10-02T02:10:48.248Z,62.43
2022-10-02T02:12:39.738Z,61.95
2022-10-02T02:14:21.696Z,61.34
2022-10-02T02:16:04.122Z,60.58
2022-10-02T02:17:55.403Z,60.21
2022-10-02T02:19:36.696Z,60.37
2022-10-02T02:21:16.318Z,60.14
2022-10-02T02:22:53.600Z,60.59
2022-10-02T02:24:40.306Z,60.31
2022-10-02T02:26:19.353Z,60.41
2022-10-02T02:28:03.830Z,61.31
2022-10-02T02:29:39.062Z,60.79
2022-10-02T02:31:20.638Z,60.82
2022-10-02T02:33:07.798Z,60.81
2022-10-02T02:34:47.037Z,60.43
2022-10-02T02:36:25.345Z,59.87
2022-10-02T02:38:05.810Z,59.61
2022-10-02T02:39:52.942Z,59.42
2022-10-02T02:41:35.112Z,59.37
2022-10-02T02:43:15.271Z,59.84
2022-10-02T02:44:54.377Z,59.45
2022-10-02T02:47:00.973Z,58.88
2022-10-02T02:48:40.503Z,59.02
2022-10-02T02:50:23.795Z,58.71
2022-10-02T02:52:00.274Z,58.87
2022-10-02T02:53:42.150Z,58.22
2022-10-02T02:55:24.123Z,58.41
2022-10-02T02:57:00.497Z,58.42
2022-10-02T02:59:00.450Z,58.10
2022-10-02T03:00:34.132Z,58.65
2022-10-02T03:02:07.317Z,58.65
2022-10-02T03:03:40.489Z,58.30
2022-10-02T03:05:15.855Z,58.07
2022-10-02T03:06:55.575Z,58.37
2022-10-02T03:08:32.529Z,57.90
2022-10-02T03:10:27.460Z,58.11
2022-10-02T03:12:36.107Z,58.22
2022-10-02T03:14:27.870Z,57.90
2022-10-02T03:16:23.727Z,57.29
2022-10-02T03:18:30.437Z,56.96
2022-10-02T03:20:10.983Z,56.71
2022-10-02T03:22:14.050Z,56.93
2022-10-02T03:24:22.913Z,57.41
2022-10-02T03:26:03.349Z,56.63
2022-10-02T03:27:49.276Z,56.27
2022-10-02T03:29:34.414Z,56.82
2022-10-02T03:31:11.432Z,57.13
2022-10-02T03:32:46.747Z,57.96
2022-10-02T03:34:20.355Z,57.09
2022-10-02T03:35:54.142Z,56.79
2022-10-02T03:37:29.513Z,57.33
2022-10-02T03:39:24.154Z,56.95
2022-10-02T03:41:01.222Z,57.17
2022-10-02T03:42:36.594Z,56.65
2022-10-02T03:44:10.305Z,56.54
2022-10-02T03:45:51.891Z,56.80
2022-10-02T03:47:26.039Z,56.41
2022-10-02T03:48:59.629Z,56.22
2022-10-02T03:50:36.393Z,55.81
2022-10-02T03:52:18.872Z,56.27
2022-10-02T03:53:53.224Z,55.73
2022-10-02T03:55:41.050Z,55.71
2022-10-02T03:57:26.207Z,55.56
2022-10-02T03:59:03.611Z,55.29
2022-10-02T04:00:42.033Z,55.45
2022-10-02T04:02:27.880Z,55.08
2022-10-02T04:04:09.286Z,55.12
2022-10-02T04:06:05.498Z,54.42
2022-10-02T04:07:42.885Z,54.23
2022-10-02T04:09:38.219Z,54.45
2022-10-02T04:11:47.158Z,54.08
2022-10-02T04:13:25.595Z,53.07
2022-10-02T04:15:10.509Z,53.54
2022-10-02T04:16:52.948Z,53.32
2022-10-02T04:18:58.956Z,52.24
2022-10-02T04:20:52.094Z,51.35
2022-10-02T04:22:40.239Z,50.51
2022-10-02T04:24:27.858Z,49.78
2022-10-02T04:26:08.226Z,48.64
2022-10-02T04:27:52.275Z,47.76
2022-10-02T04:29:36.195Z,47.08
2022-10-02T04:31:13.283Z,46.47
2022-10-02T04:32:54.261Z,45.67
2022-10-02T04:34:29.470Z,45.78
2022-10-02T04:36:30.776Z,43.62
2022-10-02T04:38:07.072Z,43.28
2022-10-02T04:39:46.474Z,44.04
2022-10-02T04:41:41.608Z,44.34
2022-10-02T04:43:43.446Z,44.44
2022-10-02T04:45:30.735Z,45.29
2022-10-02T04:47:33.414Z,44.44
2022-10-02T04:49:41.597Z,41.46
2022-10-02T04:51:27.694Z,39.49
2022-10-02T04:53:00.964Z,39.63
2022-10-02T04:55:02.491Z,38.86
2022-10-02T04:57:12.669Z,38.33
2022-10-02T04:59:06.541Z,37.77
2022-10-02T05:00:59.190Z,37.11
2022-10-02T05:02:51.528Z,35.34
2022-10-02T05:04:54.131Z,35.15
2022-10-02T05:06:35.977Z,34.85
2022-10-02T05:08:38.655Z,33.27
2022-10-02T05:10:39.565Z,32.63
2022-10-02T05:12:28.365Z,33.06
2022-10-02T05:14:13.466Z,32.12
2022-10-02T05:16:05.906Z,32.71
2022-10-02T05:17:45.619Z,32.30
2022-10-02T05:19:24.972Z,31.59
2022-10-02T05:21:19.708Z,32.07
2022-10-02T05:23:25.316Z,32.18
2022-10-02T05:25:16.734Z,33.37
2022-10-02T05:27:10.352Z,34.03
2022-10-02T05:28:43.756Z,34.14
2022-10-02T05:30:19.720Z,34.75
2022-10-02T05:32:26.288Z,33.88
2022-10-02T05:34:38.532Z,33.22
2022-10-02T05:37:00.531Z,32.39
2022-10-02T05:38:40.276Z,31.70
2022-10-02T05:40:34.681Z,30.44
2022-10-02T05:42:17.139Z,30.58
2022-10-02T05:44:05.425Z,30.92
2022-10-02T05:45:44.671Z,31.11
2022-10-02T05:47:32.718Z,31.04
2022-10-02T05:49:14.847Z,32.21
2022-10-02T05:50:53.541Z,33.35
2022-10-02T05:52:49.095Z,34.29
2022-10-02T05:54:43.730Z,35.33
2022-10-02T05:56:23.155Z,35.53
2022-10-02T05:58:04.099Z,35.71
2022-10-02T05:59:43.840Z,35.84
2022-10-02T06:01:44.433Z,35.46
2022-10-02T06:03:50.058Z,33.95
2022-10-02T06:05:30.917Z,33.33
2022-10-02T06:07:16.288Z,32.39
2022-10-02T06:08:58.812Z,32.45
2022-10-02T06:10:42.098Z,31.91
2022-10-02T06:12:18.057Z,31.41
2022-10-02T06:13:59.258Z,31.49
2022-10-02T06:16:00.921Z,31.75
2022-10-02T06:17:38.789Z,32.07
2022-10-02T06:19:17.577Z,32.26
2022-10-02T06:21:00.299Z,32.51
2022-10-02T06:22:42.157Z,32.59
2022-10-02T06:24:27.858Z,32.84
2022-10-02T06:26:19.046Z,32.79
2022-10-02T06:28:01.283Z,32.86
2022-10-02T06:29:42.783Z,33.13
2022-10-02T06:31:44.218Z,33.55
2022-10-02T06:33:35.048Z,33.46
2022-10-02T06:35:30.677Z,33.00
2022-10-02T06:37:23.254Z,33.27
2022-10-02T06:39:18.621Z,32.94
2022-10-02T06:41:13.732Z,33.25
2022-10-02T06:43:18.414Z,33.83
2022-10-02T06:45:30.643Z,33.39
2022-10-02T06:47:37.466Z,34.07
2022-10-02T06:49:52.157Z,34.02
2022-10-02T06:51:41.092Z,33.73
2022-10-02T06:53:34.700Z,34.12
2022-10-02T06:55:29.183Z,34.32
2022-10-02T06:57:05.688Z,34.42
2022-10-02T06:58:57.052Z,35.07
2022-10-02T07:00:35.440Z,35.63
2022-10-02T07:02:36.267Z,34.94
2022-10-02T07:04:17.094Z,34.65
2022-10-02T07:06:31.533Z,34.80
2022-10-02T07:08:04.949Z,34.83
2022-10-02T07:09:57.399Z,34.80
2022-10-02T07:11:33.345Z,35.00
2022-10-02T07:13:19.646Z,34.12
2022-10-02T07:15:27.180Z,34.38
2022-10-02T07:17:00.485Z,34.06
2022-10-02T07:18:58.575Z,34.27
2022-10-02T07:20:58.549Z,34.57
2022-10-02T07:23:07.768Z,34.43
2022-10-02T07:25:28.747Z,35.13
2022-10-02T07:27:07.762Z,35.25
2022-10-02T07:28:46.769Z,35.49
2022-10-02T07:30:23.712Z,35.55
2022-10-02T07:32:21.110Z,35.63
2022-10-02T07:34:40.842Z,35.90
2022-10-02T07:36:38.417Z,36.14
2022-10-02T07:38:43.719Z,35.61
2022-10-02T07:40:35.879Z,35.90
2022-10-02T07:42:20.412Z,35.31
2022-10-02T07:44:03.404Z,35.07
2022-10-02T07:45:47.643Z,34.08
2022-10-02T07:47:33.568Z,34.29
2022-10-02T07:49:27.859Z,33.91
2022-10-02T07:51:48.078Z,33.46
2022-10-02T07:53:47.146Z,33.79
2022-10-02T07:55:25.503Z,32.90
2022-10-02T07:57:20.911Z,32.93
2022-10-02T07:59:04.307Z,32.77
2022-10-02T08:00:43.863Z,33.23
2022-10-02T08:02:28.593Z,33.39
2022-10-02T08:04:10.981Z,33.51
2022-10-02T08:05:53.516Z,33.46
2022-10-02T08:07:29.170Z,33.34
2022-10-02T08:09:34.290Z,33.72
2022-10-02T08:11:13.444Z,33.81
2022-10-02T08:13:12.032Z,33.28
2022-10-02T08:14:48.113Z,33.82
2022-10-02T08:16:25.671Z,33.47
2022-10-02T08:18:22.770Z,33.21
2022-10-02T08:20:24.550Z,33.56
2022-10-02T08:22:47.241Z,33.07
2022-10-02T08:24:38.836Z,33.72
2022-10-02T08:26:36.055Z,33.86
2022-10-02T08:28:42.932Z,34.11
2022-10-02T08:30:19.086Z,33.40
2022-10-02T08:31:56.074Z,33.56
2022-10-02T08:33:54.297Z,33.45
2022-10-02T08:35:52.440Z,33.45
2022-10-02T08:37:41.261Z,33.39
2022-10-02T08:39:59.031Z,33.96
2022-10-02T08:42:05.433Z,32.97
2022-10-02T08:43:48.186Z,33.40
2022-10-02T08:45:51.184Z,33.85
2022-10-02T08:47:47.774Z,33.48
2022-10-02T08:49:39.676Z,33.43
2022-10-02T08:51:35.031Z,33.85
2022-10-02T08:53:32.614Z,33.68
2022-10-02T08:55:25.234Z,33.43
2022-10-02T08:57:20.099Z,33.25
2022-10-02T08:59:21.826Z,33.33
2022-10-02T09:00:57.693Z,33.54
2022-10-02T09:02:57.797Z,33.47
2022-10-02T09:05:02.725Z,33.72
2022-10-02T09:07:11.509Z,33.14
2022-10-02T09:09:32.393Z,33.18
2022-10-02T09:11:23.034Z,33.88
2022-10-02T09:12:59.492Z,33.25
2022-10-02T09:15:14.386Z,33.40
2022-10-02T09:17:09.244Z,33.65
2022-10-02T09:18:54.675Z,33.15
2022-10-02T09:20:48.637Z,33.49
2022-10-02T09:22:52.207Z,33.12
2022-10-02T09:24:50.437Z,33.37
2022-10-02T09:26:35.656Z,33.25
2022-10-02T09:28:58.556Z,33.28
2022-10-02T09:31:06.876Z,33.50
2022-10-02T09:32:48.824Z,33.86
2022-10-02T09:34:36.357Z,34.33
2022-10-02T09:36:34.329Z,34.61
2022-10-02T09:38:30.253Z,34.37
2022-10-02T09:40:09.100Z,33.95
2022-10-02T09:42:01.240Z,34.02
2022-10-02T09:43:48.172Z,33.49
2022-10-02T09:45:33.592Z,34.05
2022-10-02T09:47:21.275Z,33.57
2022-10-02T09:49:25.002Z,33.37
2022-10-02T09:51:26.479Z,33.61
2022-10-02T09:53:19.146Z,34.08
2022-10-02T09:54:58.246Z,33.67
2022-10-02T09:56:40.675Z,33.40
2022-10-02T09:58:41.085Z,33.50
2022-10-02T10:00:45.404Z,33.31
2022-10-02T10:02:33.448Z,33.63
2022-10-02T10:04:24.745Z,33.37
2022-10-02T10:06:00.433Z,33.40
2022-10-02T10:07:51.819Z,33.11
2022-10-02T10:09:52.841Z,33.25
2022-10-02T10:11:52.242Z,33.30
2022-10-02T10:13:34.221Z,33.74
2022-10-02T10:15:30.262Z,33.01
2022-10-02T10:17:12.832Z,33.08
2022-10-02T10:19:11.807Z,33.12
2022-10-02T10:21:23.228Z,33.31
2022-10-02T10:23:10.475Z,33.19
2022-10-02T10:25:22.062Z,32.97
2022-10-02T10:27:22.740Z,33.07
2022-10-02T10:29:22.649Z,33.10
2022-10-02T10:31:23.852Z,33.02
2022-10-02T10:33:21.196Z,33.35
2022-10-02T10:35:16.196Z,33.19
2022-10-02T10:37:25.202Z,33.08
2022-10-02T10:39:39.084Z,33.21
2022-10-02T10:41:47.373Z,32.88
2022-10-02T10:43:57.682Z,32.98
2022-10-02T10:46:02.738Z,32.97
2022-10-02T10:47:58.233Z,32.79
2022-10-02T10:49:44.523Z,33.24
2022-10-02T10:51:46.122Z,33.33
2022-10-02T10:53:49.707Z,33.28
2022-10-02T10:56:00.382Z,33.58
2022-10-02T10:57:53.743Z,33.45
2022-10-02T10:59:30.472Z,33.49
2022-10-02T11:01:19.198Z,33.84
2022-10-02T11:03:18.226Z,33.67
2022-10-02T11:04:52.666Z,34.05
2022-10-02T11:06:38.075Z,33.96
2022-10-02T11:08:31.035Z,34.34
2022-10-02T11:10:30.063Z,34.17
2022-10-02T11:12:33.439Z,33.78
2022-10-02T11:14:30.914Z,33.81
2022-10-02T11:16:41.533Z,33.88
2022-10-02T11:18:47.183Z,33.90
2022-10-02T11:20:45.152Z,34.33
2022-10-02T11:22:25.562Z,34.09
2022-10-02T11:24:36.947Z,34.10
2022-10-02T11:26:48.501Z,34.23
2022-10-02T11:28:28.984Z,34.41
2022-10-02T11:30:13.088Z,34.81
2022-10-02T11:32:10.719Z,34.86
2022-10-02T11:34:05.858Z,35.21
2022-10-02T11:35:48.624Z,35.01
2022-10-02T11:37:24.679Z,35.05
2022-10-02T11:39:25.853Z,35.03
2022-10-02T11:41:59.874Z,34.58
2022-10-02T11:44:03.451Z,34.68
2022-10-02T11:46:02.075Z,34.68
2022-10-02T11:48:09.662Z,35.09
2022-10-02T11:50:02.649Z,34.81
2022-10-02T11:52:13.607Z,34.65
2022-10-02T11:54:08.230Z,35.39
2022-10-02T11:55:52.497Z,35.39
2022-10-02T11:57:40.889Z,35.10
2022-10-02T11:59:23.470Z,35.01
2022-10-02T12:01:26.666Z,34.89
2022-10-02T12:03:09.979Z,35.19
2022-10-02T12:05:10.406Z,35.39
2022-10-02T12:06:53.221Z,34.87
2022-10-02T12:08:35.228Z,35.16
2022-10-02T12:10:27.815Z,35.15
2022-10-02T12:12:27.584Z,35.31
2022-10-02T12:14:07.687Z,35.57
2022-10-02T12:15:54.419Z,35.39
2022-10-02T12:17:33.407Z,35.35
2022-10-02T12:19:36.486Z,35.21
2022-10-02T12:21:55.860Z,35.27
2022-10-02T12:24:14.290Z,35.19
2022-10-02T12:26:18.341Z,35.49
2022-10-02T12:28:12.206Z,35.29
2022-10-02T12:30:09.157Z,35.18
2022-10-02T12:32:10.570Z,35.54
2022-10-02T12:34:06.988Z,35.77
2022-10-02T12:35:55.651Z,35.24
2022-10-02T12:38:07.546Z,35.30
2022-10-02T12:40:02.809Z,35.33
2022-10-02T12:41:36.800Z,35.41
2022-10-02T12:43:35.226Z,35.75
2022-10-02T12:45:38.025Z,35.79
2022-10-02T12:47:23.164Z,35.99
2022-10-02T12:49:16.363Z,36.31
2022-10-02T12:51:30.540Z,36.57
2022-10-02T12:53:18.741Z,36.78
2022-10-02T12:54:57.875Z,37.15
2022-10-02T12:57:09.274Z,37.13
2022-10-02T12:59:29.299Z,37.05
2022-10-02T13:01:25.414Z,37.41
2022-10-02T13:03:29.477Z,37.86
2022-10-02T13:05:08.744Z,37.48
2022-10-02T13:07:12.556Z,37.85
2022-10-02T13:09:16.999Z,38.16
2022-10-02T13:10:57.866Z,38.08
2022-10-02T13:12:51.375Z,37.92
2022-10-02T13:15:02.128Z,38.15
2022-10-02T13:16:47.018Z,38.45
2022-10-02T13:18:27.714Z,38.38
2022-10-02T13:20:12.623Z,38.79
2022-10-02T13:21:52.129Z,39.02
2022-10-02T13:23:44.336Z,38.86
2022-10-02T13:25:26.798Z,39.41
2022-10-02T13:27:31.336Z,39.61
2022-10-02T13:29:29.989Z,39.49
2022-10-02T13:31:27.057Z,39.65
2022-10-02T13:33:20.348Z,40.03
2022-10-02T13:35:32.051Z,40.17
2022-10-02T13:37:33.016Z,40.50
2022-10-02T13:39:29.874Z,40.79
2022-10-02T13:41:06.538Z,41.12
2022-10-02T13:43:10.872Z,41.23
2022-10-02T13:44:50.345Z,41.52
2022-10-02T13:47:19.489Z,41.64
2022-10-02T13:49:15.693Z,41.70
2022-10-02T13:51:00.580Z,42.08
2022-10-02T13:52:48.665Z,42.14
2022-10-02T13:54:52.290Z,42.25
2022-10-02T13:56:44.393Z,42.32
2022-10-02T13:58:43.457Z,42.34
2022-10-02T14:00:38.376Z,42.46
2022-10-02T14:02:33.295Z,42.64
2022-10-02T14:04:21.380Z,42.47
2022-10-02T14:06:26.057Z,42.66
2022-10-02T14:08:27.008Z,42.76
2022-10-02T14:10:07.325Z,42.74
2022-10-02T14:11:58.979Z,42.38
2022-10-02T14:13:49.885Z,42.29
2022-10-02T14:16:10.274Z,42.36
2022-10-02T14:18:03.069Z,42.08
2022-10-02T14:19:39.229Z,42.19
2022-10-02T14:21:43.359Z,41.17
2022-10-02T14:23:22.387Z,41.05
2022-10-02T14:25:26.865Z,40.91
2022-10-02T14:27:19.823Z,40.79
2022-10-02T14:29:11.382Z,40.42
2022-10-02T14:31:08.736Z,40.45
2022-10-02T14:33:25.476Z,40.64
2022-10-02T14:35:21.491Z,40.61
2022-10-02T14:37:20.822Z,40.91
2022-10-02T14:39:31.946Z,40.95
2022-10-02T14:41:49.183Z,40.78
2022-10-02T14:43:42.677Z,40.35
2022-10-02T14:45:53.633Z,40.40
2022-10-02T14:47:42.252Z,40.49
2022-10-02T14:49:19.211Z,40.70
2022-10-02T14:51:11.418Z,40.82
2022-10-02T14:53:04.516Z,40.75
2022-10-02T14:54:58.906Z,40.62
2022-10-02T14:56:54.656Z,40.81
2022-10-02T14:58:41.519Z,41.15
2022-10-02T15:00:22.758Z,41.04
2022-10-02T15:02:03.457Z,40.46
2022-10-02T15:04:05.104Z,40.76
2022-10-02T15:06:05.569Z,40.78
2022-10-02T15:07:40.869Z,41.00
2022-10-02T15:09:20.811Z,40.61
2022-10-02T15:10:54.041Z,40.65
2022-10-02T15:13:02.447Z,40.77
2022-10-02T15:15:04.118Z,40.88
2022-10-02T15:17:20.473Z,40.80
2022-10-02T15:19:40.565Z,40.53
2022-10-02T15:21:27.344Z,40.94
2022-10-02T15:23:03.624Z,40.52
2022-10-02T15:24:46.230Z,40.81
2022-10-02T15:26:48.596Z,40.40
2022-10-02T15:28:48.567Z,40.55
2022-10-02T15:30:24.762Z,40.20
2022-10-02T15:32:10.001Z,40.05
2022-10-02T15:34:18.572Z,40.18
2022-10-02T15:36:12.810Z,39.90
2022-10-02T15:38:02.271Z,39.59
2022-10-02T15:39:42.589Z,39.65
2022-10-02T15:41:40.602Z,39.93
2022-10-02T15:43:16.410Z,39.15
2022-10-02T15:45:11.681Z,39.46
2022-10-02T15:47:07.171Z,39.67
2022-10-02T15:48:59.036Z,39.57
2022-10-02T15:50:55.354Z,39.22
2022-10-02T15:52:47.604Z,39.67
2022-10-02T15:54:30.427Z,39.36
2022-10-02T15:56:48.543Z,39.53
2022-10-02T15:58:55.878Z,39.74
2022-10-02T16:00:32.677Z,39.12
2022-10-02T16:02:18.154Z,39.40
2022-10-02T16:03:54.007Z,39.08
2022-10-02T16:05:41.963Z,39.35
2022-10-02T16:07:24.821Z,39.10
2022-10-02T16:09:13.522Z,39.10
2022-10-02T16:11:06.991Z,38.95
2022-10-02T16:12:50.294Z,39.22
2022-10-02T16:14:44.530Z,39.19
2022-10-02T16:16:40.992Z,39.07
2022-10-02T16:18:33.374Z,39.00
2022-10-02T16:20:16.053Z,39.10
2022-10-02T16:22:17.635Z,39.04
2022-10-02T16:24:13.091Z,39.17
2022-10-02T16:25:59.025Z,39.12
2022-10-02T16:28:16.707Z,38.99
2022-10-02T16:30:11.639Z,39.76
2022-10-02T16:31:54.791Z,39.61
2022-10-02T16:33:32.521Z,39.54
2022-10-02T16:35:44.208Z,39.38
2022-10-02T16:37:32.635Z,39.74
2022-10-02T16:39:24.300Z,40.02
2022-10-02T16:41:00.609Z,40.20
2022-10-02T16:42:53.669Z,39.52
2022-10-02T16:45:22.502Z,39.73
2022-10-02T16:47:10.793Z,40.26
2022-10-02T16:48:56.917Z,40.32
2022-10-02T16:50:46.678Z,40.58
2022-10-02T16:52:32.241Z,40.62
2022-10-02T16:54:23.740Z,40.55
2022-10-02T16:56:12.815Z,40.60
2022-10-02T16:57:46.259Z,40.73
2022-10-02T16:59:22.653Z,40.61
2022-10-02T17:01:24.425Z,40.55
2022-10-02T17:03:47.248Z,40.55
2022-10-02T17:05:41.057Z,40.91
2022-10-02T17:07:42.253Z,40.78
2022-10-02T17:09:30.123Z,40.95
2022-10-02T17:11:25.580Z,40.61
2022-10-02T17:13:14.113Z,41.48
2022-10-02T17:15:00.844Z,40.78
2022-10-02T17:16:48.301Z,40.49
2022-10-02T17:18:34.386Z,41.00
2022-10-02T17:20:17.080Z,41.00
2022-10-02T17:22:10.298Z,41.32
2022-10-02T17:23:57.383Z,41.09
2022-10-02T17:25:30.536Z,41.24
2022-10-02T17:27:48.694Z,41.03
2022-10-02T17:29:53.392Z,40.92
2022-10-02T17:31:52.988Z,41.36
2022-10-02T17:33:32.573Z,41.35
2022-10-02T17:35:44.902Z,41.57
2022-10-02T17:37:18.195Z,41.85
2022-10-02T17:39:04.502Z,42.06
2022-10-02T17:40:49.990Z,41.74
2022-10-02T17:42:44.946Z,42.00
2022-10-02T17:44:47.168Z,42.04
2022-10-02T17:46:20.844Z,42.17
2022-10-02T17:48:16.901Z,41.92
2022-10-02T17:49:59.397Z,42.33
2022-10-02T17:51:52.843Z,41.89
2022-10-02T17:53:54.229Z,41.70
2022-10-02T17:55:55.175Z,41.91
2022-10-02T17:57:39.805Z,42.08
2022-10-02T17:59:33.946Z,41.68
2022-10-02T18:01:25.213Z,41.87
2022-10-02T18:03:15.376Z,41.82
2022-10-02T18:05:02.692Z,42.03
2022-10-02T18:07:15.882Z,42.35
2022-10-02T18:08:54.048Z,41.91
2022-10-02T18:10:31.732Z,42.01
2022-10-02T18:12:53.322Z,41.89
2022-10-02T18:14:48.906Z,41.87
2022-10-02T18:16:28.187Z,41.97
2022-10-02T18:18:18.648Z,42.09
2022-10-02T18:19:59.941Z,42.20
2022-10-02T18:22:07.262Z,42.39
2022-10-02T18:24:05.469Z,42.20
2022-10-02T18:25:45.301Z,42.03
2022-10-02T18:27:23.542Z,42.21
2022-10-02T18:28:59.424Z,41.90
2022-10-02T18:31:15.429Z,42.41
2022-10-02T18:33:05.991Z,42.44
2022-10-02T18:34:52.612Z,42.40
2022-10-02T18:36:41.810Z,42.50
2022-10-02T18:38:42.009Z,42.51
2022-10-02T18:40:25.586Z,42.03
2022-10-02T18:42:30.493Z,42.21
2022-10-02T18:44:45.656Z,42.53
2022-10-02T18:46:37.799Z,42.41
2022-10-02T18:48:41.984Z,42.84
2022-10-02T18:50:30.637Z,42.76
2022-10-02T18:52:18.989Z,43.09
2022-10-02T18:54:31.494Z,42.76
2022-10-02T18:56:12.689Z,42.91
2022-10-02T18:58:04.675Z,42.90
2022-10-02T19:00:00.299Z,43.30
2022-10-02T19:01:51.807Z,43.04
2022-10-02T19:03:40.329Z,43.09
2022-10-02T19:05:35.757Z,43.35
2022-10-02T19:07:12.127Z,43.03
2022-10-02T19:09:14.567Z,43.47
2022-10-02T19:10:48.600Z,43.21
2022-10-02T19:12:25.971Z,43.24
2022-10-02T19:14:02.668Z,43.76
2022-10-02T19:15:37.221Z,43.41
2022-10-02T19:17:24.942Z,43.53
2022-10-02T19:19:20.137Z,44.06
2022-10-02T19:21:03.874Z,43.81
2022-10-02T19:22:39.050Z,43.77
2022-10-02T19:24:17.011Z,43.94
2022-10-02T19:25:53.136Z,43.83
2022-10-02T19:27:34.161Z,43.81
2022-10-02T19:29:37.239Z,44.04
2022-10-02T19:31:11.866Z,43.79
2022-10-02T19:32:53.396Z,43.79
2022-10-02T19:34:31.796Z,43.97
2022-10-02T19:36:06.967Z,44.20
2022-10-02T19:37:43.588Z,44.14
2022-10-02T19:39:27.075Z,44.12
2022-10-02T19:41:10.294Z,43.79
2022-10-02T19:43:15.124Z,43.83
2022-10-02T19:44:52.307Z,44.08
2022-10-02T19:46:34.444Z,43.88
2022-10-02T19:48:10.933Z,43.36
2022-10-02T19:49:51.410Z,43.79
2022-10-02T19:51:26.182Z,43.75
2022-10-02T19:53:07.348Z,43.94
2022-10-02T19:54:41.616Z,43.79
2022-10-02T19:56:24.717Z,43.38
2022-10-02T19:58:06.756Z,43.66
2022-10-02T19:59:53.430Z,43.91
2022-10-02T20:01:52.127Z,43.52
2022-10-02T20:03:27.502Z,43.50
2022-10-02T20:05:04.618Z,43.61
2022-10-02T20:06:40.880Z,43.67
2022-10-02T20:08:20.087Z,43.55
2022-10-02T20:10:16.565Z,43.92
2022-10-02T20:12:23.966Z,43.84
2022-10-02T20:14:12.136Z,43.77
2022-10-02T20:16:06.977Z,43.96
2022-10-02T20:17:40.595Z,43.86
2022-10-02T20:19:31.146Z,43.57
2022-10-02T20:21:19.906Z,43.28
2022-10-02T20:23:02.011Z,43.48
2022-10-02T20:24:59.872Z,43.35
2022-10-02T20:26:35.698Z,43.41
2022-10-02T20:28:24.176Z,43.23
2022-10-02T20:30:04.299Z,42.91
2022-10-02T20:31:43.994Z,43.46
2022-10-02T20:33:25.899Z,43.52
2022-10-02T20:35:12.552Z,43.35
2022-10-02T20:37:09.375Z,43.53
2022-10-02T20:39:04.700Z,43.33
2022-10-02T20:40:42.612Z,43.74
2022-10-02T20:42:36.256Z,43.31
2022-10-02T20:44:09.715Z,43.41
2022-10-02T20:45:49.728Z,43.58
2022-10-02T20:47:54.138Z,43.41
2022-10-02T20:50:04.914Z,43.83
2022-10-02T20:51:57.265Z,44.20
2022-10-02T20:54:13.095Z,44.12
2022-10-02T20:56:08.110Z,43.89
2022-10-02T20:58:00.689Z,44.21
2022-10-02T20:59:48.559Z,43.95
2022-10-02T21:01:30.862Z,44.07
2022-10-02T21:03:31.532Z,44.05
2022-10-02T21:05:36.979Z,44.01
2022-10-02T21:07:21.432Z,44.50
2022-10-02T21:09:23.388Z,44.46
2022-10-02T21:11:19.620Z,44.96
2022-10-02T21:13:08.138Z,44.65
2022-10-02T21:15:03.817Z,45.30
2022-10-02T21:16:55.940Z,45.44
2022-10-02T21:19:14.423Z,45.38
2022-10-02T21:21:09.211Z,45.68
2022-10-02T21:23:10.930Z,45.35
2022-10-02T21:25:12.115Z,45.39
2022-10-02T21:27:19.268Z,45.33
2022-10-02T21:29:24.478Z,45.30
2022-10-02T21:31:10.837Z,45.19
2022-10-02T21:32:57.244Z,44.36
2022-10-02T21:34:52.018Z,44.53
2022-10-02T21:36:34.188Z,45.35
2022-10-02T21:38:16.751Z,44.63
2022-10-02T21:40:18.453Z,44.85
2022-10-02T21:41:54.753Z,45.00
2022-10-02T21:43:30.922Z,45.03
2022-10-02T21:45:25.939Z,44.94
2022-10-02T21:47:41.106Z,45.20
2022-10-02T21:49:55.903Z,45.41
2022-10-02T21:52:02.971Z,45.21
2022-10-02T21:54:05.115Z,44.94
2022-10-02T21:56:11.074Z,44.83
2022-10-02T21:58:03.212Z,44.94
2022-10-02T21:59:50.570Z,44.95
2022-10-02T22:01:57.171Z,44.68
2022-10-02T22:04:00.518Z,44.97
2022-10-02T22:05:53.394Z,45.07
2022-10-02T22:07:36.861Z,44.87
2022-10-02T22:09:31.400Z,44.88
2022-10-02T22:11:23.187Z,44.75
2022-10-02T22:13:23.794Z,44.67
2022-10-02T22:15:41.971Z,44.94
2022-10-02T22:17:41.583Z,44.71
2022-10-02T22:19:54.219Z,44.83
2022-10-02T22:22:02.602Z,45.12
2022-10-02T22:24:12.402Z,45.34
2022-10-02T22:26:19.160Z,45.05
2022-10-02T22:28:03.680Z,44.79
2022-10-02T22:29:57.712Z,44.74
2022-10-02T22:31:52.672Z,45.03
2022-10-02T22:33:59.739Z,44.52
2022-10-02T22:36:04.316Z,44.38
2022-10-02T22:38:05.328Z,44.47
2022-10-02T22:39:45.497Z,44.58
2022-10-02T22:41:34.822Z,44.74
2022-10-02T22:43:10.160Z,45.05
2022-10-02T22:45:06.322Z,44.82
2022-10-02T22:46:51.442Z,45.09
2022-10-02T22:48:38.950Z,44.79
2022-10-02T22:50:34.971Z,44.88
2022-10-02T22:52:17.448Z,45.00
2022-10-02T22:54:00.158Z,44.90
2022-10-02T22:55:39.320Z,44.96
2022-10-02T22:57:27.755Z,45.22
2022-10-02T22:59:15.775Z,44.92
2022-10-02T23:01:06.837Z,45.29
2022-10-02T23:02:50.933Z,45.38
2022-10-02T23:04:46.155Z,45.36
2022-10-02T23:06:30.715Z,45.47
2022-10-02T23:08:33.830Z,45.12
2022-10-02T23:10:09.801Z,45.34
2022-10-02T23:11:56.881Z,45.08
2022-10-02T23:14:13.342Z,45.12
2022-10-02T23:15:58.216Z,45.12
2022-10-02T23:17:37.476Z,45.38
2022-10-02T23:19:27.912Z,45.29
2022-10-02T23:21:24.951Z,45.44
2022-10-02T23:23:17.578Z,45.55
2022-10-02T23:25:00.938Z,45.56
2022-10-02T23:27:03.795Z,45.88
2022-10-02T23:28:59.102Z,46.01
2022-10-02T23:30:38.261Z,46.52
2022-10-02T23:32:17.892Z,46.48
2022-10-02T23:33:58.957Z,46.54
2022-10-02T23:35:49.898Z,46.37
2022-10-02T23:37:38.089Z,46.47
2022-10-02T23:39:29.168Z,46.62
2022-10-02T23:41:24.275Z,46.57
2022-10-02T23:43:06.037Z,46.86
2022-10-02T23:44:56.242Z,46.94
2022-10-02T23:46:37.265Z,47.10
2022-10-02T23:48:14.950Z,47.15
2022-10-02T23:49:52.792Z,47.34
2022-10-02T23:51:41.687Z,47.40